PWSweather.com
Personal Weather Stations
Station Observations
IBAVARIA50
Munich, PlieningDE 85652

MunichPlieningDE 85652

Lat: 48.19916153, Lon: 11.79794312

Elevation: 504

Station Type: Davis Vantage Pro2

http://wetterstation-pliening.info

High Low Average
Temperature 79.5°F26.4°F 58.8°F14.9°F 67.2°F19.6°F
Dew Point 63.4°F17.4°F 54.9°F12.7°F 58.3°F14.6°F
Winds 11.0 mph -17.7 mph - Calm Calm 2.0 mph 3.2 mph
Wind Gusts 19.0 mph30.6 mph -- 4.3 mph6.9 mph
Humidity 93% 49% 75%
Pressure 29.95 in1014.20 in 29.80 in1009.10 in -
Precipitation 1.34 in34.00 in - -
Hour Temp Dew Point Humidity Winds Wind Gusts Pressure Precip Precip Rate Daily Precip Total
12:00 AM 60.7°F15.9°C 57.1°F13.9°C 88% Calm Calm 1.0 mph1.6 kmh 29.91 in1012.9 mb 0.00 in0.0 mm 0.00 in0.0 mm 0.00 in0.0 mm
12:05 AM 60.7°F15.9°C 56.8°F13.8°C 87% Calm Calm -- 29.91 in1012.9 mb 0.00 in0.0 mm 0.00 in0.0 mm 0.00 in0.0 mm
12:10 AM 60.7°F15.9°C 56.8°F13.8°C 87% Calm Calm 2.0 mph3.2 kmh 29.91 in1012.9 mb 0.00 in0.0 mm 0.00 in0.0 mm 0.00 in0.0 mm
12:15 AM 60.8°F16.0°C 56.9°F13.8°C 87% Calm Calm 1.0 mph1.6 kmh 29.91 in1012.9 mb 0.00 in0.0 mm 0.00 in0.0 mm 0.00 in0.0 mm
12:20 AM 60.7°F15.9°C 56.8°F13.8°C 87% Calm Calm 1.0 mph1.6 kmh 29.91 in1012.9 mb 0.00 in0.0 mm 0.00 in0.0 mm 0.00 in0.0 mm
12:25 AM 60.5°F15.8°C 56.6°F13.7°C 87% Calm Calm 2.0 mph3.2 kmh 29.91 in1012.9 mb 0.00 in0.0 mm 0.00 in0.0 mm 0.00 in0.0 mm
12:30 AM 60.5°F15.8°C 56.6°F13.7°C 87% 1.0 mph SE1.6 kmh SE 1.0 mph1.6 kmh 29.91 in1012.9 mb 0.00 in0.0 mm 0.00 in0.0 mm 0.00 in0.0 mm
12:35 AM 60.5°F15.8°C 56.6°F13.7°C 87% 2.0 mph SE3.2 kmh SE 1.0 mph1.6 kmh 29.91 in1012.9 mb 0.00 in0.0 mm 0.00 in0.0 mm 0.00 in0.0 mm
12:40 AM 60.4°F15.8°C 56.5°F13.6°C 87% 1.0 mph SE1.6 kmh SE 2.0 mph3.2 kmh 29.91 in1012.9 mb 0.00 in0.0 mm 0.00 in0.0 mm 0.00 in0.0 mm
12:45 AM 60.3°F15.7°C 56.4°F13.6°C 87% 1.0 mph SE1.6 kmh SE 2.0 mph3.2 kmh 29.91 in1012.9 mb 0.00 in0.0 mm 0.00 in0.0 mm 0.00 in0.0 mm
12:50 AM 60.2°F15.7°C 56.3°F13.5°C 87% 2.0 mph SE3.2 kmh SE 2.0 mph3.2 kmh 29.92 in1013.2 mb 0.00 in0.0 mm 0.00 in0.0 mm 0.00 in0.0 mm
12:55 AM 60.2°F15.7°C 56.6°F13.7°C 88% Calm Calm 2.0 mph3.2 kmh 29.91 in1012.9 mb 0.00 in0.0 mm 0.00 in0.0 mm 0.00 in0.0 mm
01:00 AM 60.1°F15.6°C 56.5°F13.6°C 88% Calm Calm 2.0 mph3.2 kmh 29.91 in1012.9 mb 0.00 in0.0 mm 0.00 in0.0 mm 0.00 in0.0 mm
01:05 AM 60.0°F15.6°C 56.4°F13.6°C 88% 2.0 mph SE3.2 kmh SE 2.0 mph3.2 kmh 29.91 in1012.9 mb 0.00 in0.0 mm 0.00 in0.0 mm 0.00 in0.0 mm
01:10 AM 60.0°F15.6°C 56.4°F13.6°C 88% 1.0 mph SE1.6 kmh SE 3.0 mph4.8 kmh 29.91 in1012.9 mb 0.00 in0.0 mm 0.00 in0.0 mm 0.00 in0.0 mm
01:15 AM 59.9°F15.5°C 56.3°F13.5°C 88% Calm Calm 3.0 mph4.8 kmh 29.92 in1013.2 mb 0.00 in0.0 mm 0.00 in0.0 mm 0.00 in0.0 mm
01:20 AM 59.8°F15.4°C 56.2°F13.4°C 88% 2.0 mph SE3.2 kmh SE 2.0 mph3.2 kmh 29.92 in1013.2 mb 0.00 in0.0 mm 0.00 in0.0 mm 0.00 in0.0 mm
01:25 AM 59.8°F15.4°C 56.2°F13.4°C 88% 2.0 mph SE3.2 kmh SE 3.0 mph4.8 kmh 29.91 in1012.9 mb 0.00 in0.0 mm 0.00 in0.0 mm 0.00 in0.0 mm
01:30 AM 59.8°F15.4°C 56.2°F13.4°C 88% Calm Calm 2.0 mph3.2 kmh 29.91 in1012.9 mb 0.00 in0.0 mm 0.00 in0.0 mm 0.00 in0.0 mm
01:35 AM 59.8°F15.4°C 56.2°F13.4°C 88% 2.0 mph SE3.2 kmh SE 2.0 mph3.2 kmh 29.91 in1012.9 mb 0.00 in0.0 mm 0.00 in0.0 mm 0.00 in0.0 mm
01:40 AM 59.9°F15.5°C 56.3°F13.5°C 88% 1.0 mph SE1.6 kmh SE 3.0 mph4.8 kmh 29.91 in1012.9 mb 0.00 in0.0 mm 0.00 in0.0 mm 0.00 in0.0 mm
01:45 AM 59.9°F15.5°C 56.3°F13.5°C 88% 2.0 mph SE3.2 kmh SE 3.0 mph4.8 kmh 29.91 in1012.9 mb 0.00 in0.0 mm 0.00 in0.0 mm 0.00 in0.0 mm
01:50 AM 59.8°F15.4°C 56.2°F13.4°C 88% 1.0 mph SE1.6 kmh SE 3.0 mph4.8 kmh 29.91 in1012.9 mb 0.00 in0.0 mm 0.00 in0.0 mm 0.00 in0.0 mm
01:55 AM 59.8°F15.4°C 56.2°F13.4°C 88% 3.0 mph SE4.8 kmh SE 3.0 mph4.8 kmh 29.91 in1012.9 mb 0.00 in0.0 mm 0.00 in0.0 mm 0.00 in0.0 mm
02:00 AM 59.7°F15.4°C 55.8°F13.2°C 87% 1.0 mph SE1.6 kmh SE 3.0 mph4.8 kmh 29.91 in1012.9 mb 0.00 in0.0 mm 0.00 in0.0 mm 0.00 in0.0 mm
02:05 AM 59.5°F15.3°C 55.9°F13.3°C 88% 2.0 mph S3.2 kmh S 4.0 mph6.4 kmh 29.91 in1012.9 mb 0.00 in0.0 mm 0.00 in0.0 mm 0.00 in0.0 mm
02:10 AM 59.5°F15.3°C 55.9°F13.3°C 88% 1.0 mph SSE1.6 kmh SSE 3.0 mph4.8 kmh 29.90 in1012.5 mb 0.00 in0.0 mm 0.00 in0.0 mm 0.00 in0.0 mm
02:15 AM 59.6°F15.3°C 56.0°F13.3°C 88% Calm Calm 2.0 mph3.2 kmh 29.90 in1012.5 mb 0.00 in0.0 mm 0.00 in0.0 mm 0.00 in0.0 mm
02:20 AM 59.6°F15.3°C 55.7°F13.2°C 87% Calm Calm 2.0 mph3.2 kmh 29.90 in1012.5 mb 0.00 in0.0 mm 0.00 in0.0 mm 0.00 in0.0 mm
02:25 AM 59.6°F15.3°C 56.0°F13.3°C 88% Calm Calm -- 29.90 in1012.5 mb 0.00 in0.0 mm 0.00 in0.0 mm 0.00 in0.0 mm
02:30 AM 59.6°F15.3°C 55.7°F13.2°C 87% Calm Calm 2.0 mph3.2 kmh 29.90 in1012.5 mb 0.00 in0.0 mm 0.00 in0.0 mm 0.00 in0.0 mm
02:35 AM 59.6°F15.3°C 55.7°F13.2°C 87% 1.0 mph SSE1.6 kmh SSE 3.0 mph4.8 kmh 29.90 in1012.5 mb 0.00 in0.0 mm 0.00 in0.0 mm 0.00 in0.0 mm
02:40 AM 59.5°F15.3°C 55.6°F13.1°C 87% 3.0 mph S4.8 kmh S 4.0 mph6.4 kmh 29.90 in1012.5 mb 0.00 in0.0 mm 0.00 in0.0 mm 0.00 in0.0 mm
02:45 AM 59.5°F15.3°C 55.9°F13.3°C 88% 2.0 mph SSE3.2 kmh SSE 4.0 mph6.4 kmh 29.90 in1012.5 mb 0.00 in0.0 mm 0.00 in0.0 mm 0.00 in0.0 mm
02:50 AM 59.5°F15.3°C 55.6°F13.1°C 87% Calm Calm 2.0 mph3.2 kmh 29.90 in1012.5 mb 0.00 in0.0 mm 0.00 in0.0 mm 0.00 in0.0 mm
02:55 AM 59.5°F15.3°C 55.9°F13.3°C 88% 1.0 mph SSE1.6 kmh SSE 2.0 mph3.2 kmh 29.90 in1012.5 mb 0.00 in0.0 mm 0.00 in0.0 mm 0.00 in0.0 mm
03:00 AM 59.5°F15.3°C 55.6°F13.1°C 87% 2.0 mph SSE3.2 kmh SSE 2.0 mph3.2 kmh 29.90 in1012.5 mb 0.00 in0.0 mm 0.00 in0.0 mm 0.00 in0.0 mm
03:05 AM 59.5°F15.3°C 55.6°F13.1°C 87% 2.0 mph SE3.2 kmh SE 3.0 mph4.8 kmh 29.94 in1013.9 mb 0.00 in0.0 mm 0.00 in0.0 mm 0.00 in0.0 mm
03:10 AM 59.5°F15.3°C 55.6°F13.1°C 87% 3.0 mph S4.8 kmh S 4.0 mph6.4 kmh 29.94 in1013.9 mb 0.00 in0.0 mm 0.00 in0.0 mm 0.00 in0.0 mm
03:15 AM 59.3°F15.2°C 55.4°F13.0°C 87% Calm Calm 4.0 mph6.4 kmh 29.93 in1013.5 mb 0.00 in0.0 mm 0.00 in0.0 mm 0.00 in0.0 mm
03:20 AM 59.2°F15.1°C 55.6°F13.1°C 88% 3.0 mph SSE4.8 kmh SSE 4.0 mph6.4 kmh 29.93 in1013.5 mb 0.00 in0.0 mm 0.00 in0.0 mm 0.00 in0.0 mm
03:25 AM 59.2°F15.1°C 55.6°F13.1°C 88% 2.0 mph SSE3.2 kmh SSE 3.0 mph4.8 kmh 29.93 in1013.5 mb 0.00 in0.0 mm 0.00 in0.0 mm 0.00 in0.0 mm
03:30 AM 59.2°F15.1°C 55.6°F13.1°C 88% Calm Calm 3.0 mph4.8 kmh 29.93 in1013.5 mb 0.00 in0.0 mm 0.00 in0.0 mm 0.00 in0.0 mm
03:35 AM 59.3°F15.2°C 55.7°F13.2°C 88% 2.0 mph SE3.2 kmh SE 2.0 mph3.2 kmh 29.93 in1013.5 mb 0.00 in0.0 mm 0.00 in0.0 mm 0.00 in0.0 mm
03:40 AM 59.3°F15.2°C 55.7°F13.2°C 88% Calm Calm 3.0 mph4.8 kmh 29.93 in1013.5 mb 0.00 in0.0 mm 0.00 in0.0 mm 0.00 in0.0 mm
03:45 AM 59.3°F15.2°C 55.7°F13.2°C 88% 1.0 mph SSE1.6 kmh SSE 3.0 mph4.8 kmh 29.93 in1013.5 mb 0.00 in0.0 mm 0.00 in0.0 mm 0.00 in0.0 mm
03:50 AM 59.2°F15.1°C 55.3°F12.9°C 87% Calm Calm 3.0 mph4.8 kmh 29.93 in1013.5 mb 0.00 in0.0 mm 0.00 in0.0 mm 0.00 in0.0 mm
03:55 AM 59.2°F15.1°C 55.3°F12.9°C 87% 1.0 mph SSE1.6 kmh SSE 3.0 mph4.8 kmh 29.93 in1013.5 mb 0.00 in0.0 mm 0.00 in0.0 mm 0.00 in0.0 mm
04:00 AM 59.3°F15.2°C 55.4°F13.0°C 87% 2.0 mph SSE3.2 kmh SSE 2.0 mph3.2 kmh 29.93 in1013.5 mb 0.00 in0.0 mm 0.00 in0.0 mm 0.00 in0.0 mm
04:05 AM 59.3°F15.2°C 55.4°F13.0°C 87% 1.0 mph SSE1.6 kmh SSE 2.0 mph3.2 kmh 29.93 in1013.5 mb 0.00 in0.0 mm 0.00 in0.0 mm 0.00 in0.0 mm
04:10 AM 59.2°F15.1°C 55.6°F13.1°C 88% Calm Calm 2.0 mph3.2 kmh 29.93 in1013.5 mb 0.00 in0.0 mm 0.00 in0.0 mm 0.00 in0.0 mm
04:20 AM 59.0°F15.0°C 55.1°F12.8°C 87% 3.0 mph S4.8 kmh S 4.0 mph6.4 kmh 29.92 in1013.2 mb 0.00 in0.0 mm 0.00 in0.0 mm 0.00 in0.0 mm
04:25 AM 59.0°F15.0°C 55.1°F12.8°C 87% 2.0 mph S3.2 kmh S 4.0 mph6.4 kmh 29.93 in1013.5 mb 0.00 in0.0 mm 0.00 in0.0 mm 0.00 in0.0 mm
04:30 AM 59.0°F15.0°C 55.1°F12.8°C 87% 3.0 mph S4.8 kmh S 4.0 mph6.4 kmh 29.92 in1013.2 mb 0.00 in0.0 mm 0.00 in0.0 mm 0.00 in0.0 mm
04:35 AM 58.9°F14.9°C 55.0°F12.8°C 87% 2.0 mph S3.2 kmh S 4.0 mph6.4 kmh 29.93 in1013.5 mb 0.00 in0.0 mm 0.00 in0.0 mm 0.00 in0.0 mm
04:40 AM 58.8°F14.9°C 54.9°F12.7°C 87% 3.0 mph S4.8 kmh S 4.0 mph6.4 kmh 29.93 in1013.5 mb 0.00 in0.0 mm 0.00 in0.0 mm 0.00 in0.0 mm
04:45 AM 58.8°F14.9°C 54.9°F12.7°C 87% 3.0 mph S4.8 kmh S 5.0 mph8.0 kmh 29.93 in1013.5 mb 0.00 in0.0 mm 0.00 in0.0 mm 0.00 in0.0 mm
04:50 AM 58.8°F14.9°C 54.9°F12.7°C 87% 1.0 mph S1.6 kmh S 4.0 mph6.4 kmh 29.93 in1013.5 mb 0.00 in0.0 mm 0.00 in0.0 mm 0.00 in0.0 mm
04:55 AM 58.8°F14.9°C 55.2°F12.9°C 88% 1.0 mph S1.6 kmh S 3.0 mph4.8 kmh 29.93 in1013.5 mb 0.00 in0.0 mm 0.00 in0.0 mm 0.00 in0.0 mm
05:00 AM 58.8°F14.9°C 55.2°F12.9°C 88% 3.0 mph S4.8 kmh S 4.0 mph6.4 kmh 29.93 in1013.5 mb 0.00 in0.0 mm 0.00 in0.0 mm 0.00 in0.0 mm
05:05 AM 58.9°F14.9°C 55.0°F12.8°C 87% 4.0 mph S6.4 kmh S 5.0 mph8.0 kmh 29.92 in1013.2 mb 0.00 in0.0 mm 0.00 in0.0 mm 0.00 in0.0 mm
05:10 AM 59.0°F15.0°C 55.1°F12.8°C 87% 3.0 mph S4.8 kmh S 6.0 mph9.7 kmh 29.92 in1013.2 mb 0.00 in0.0 mm 0.00 in0.0 mm 0.00 in0.0 mm
05:15 AM 59.1°F15.1°C 55.2°F12.9°C 87% 3.0 mph S4.8 kmh S 6.0 mph9.7 kmh 29.93 in1013.5 mb 0.00 in0.0 mm 0.00 in0.0 mm 0.00 in0.0 mm
05:20 AM 59.1°F15.1°C 55.2°F12.9°C 87% 4.0 mph S6.4 kmh S 5.0 mph8.0 kmh 29.93 in1013.5 mb 0.00 in0.0 mm 0.00 in0.0 mm 0.00 in0.0 mm
05:25 AM 59.0°F15.0°C 55.1°F12.8°C 87% 3.0 mph S4.8 kmh S 6.0 mph9.7 kmh 29.93 in1013.5 mb 0.00 in0.0 mm 0.00 in0.0 mm 0.00 in0.0 mm
05:30 AM 59.0°F15.0°C 55.4°F13.0°C 88% 3.0 mph S4.8 kmh S 6.0 mph9.7 kmh 29.93 in1013.5 mb 0.00 in0.0 mm 0.00 in0.0 mm 0.00 in0.0 mm
05:35 AM 59.1°F15.1°C 55.5°F13.1°C 88% 3.0 mph SSW4.8 kmh SSW 5.0 mph8.0 kmh 29.93 in1013.5 mb 0.00 in0.0 mm 0.00 in0.0 mm 0.00 in0.0 mm
05:40 AM 59.1°F15.1°C 55.5°F13.1°C 88% 3.0 mph SSW4.8 kmh SSW 6.0 mph9.7 kmh 29.93 in1013.5 mb 0.00 in0.0 mm 0.00 in0.0 mm 0.00 in0.0 mm
05:45 AM 59.4°F15.2°C 55.8°F13.2°C 88% 1.0 mph SSW1.6 kmh SSW 5.0 mph8.0 kmh 29.93 in1013.5 mb 0.00 in0.0 mm 0.00 in0.0 mm 0.00 in0.0 mm
05:50 AM 59.6°F15.3°C 56.0°F13.3°C 88% 2.0 mph SW3.2 kmh SW 3.0 mph4.8 kmh 29.93 in1013.5 mb 0.00 in0.0 mm 0.00 in0.0 mm 0.00 in0.0 mm
05:55 AM 60.1°F15.6°C 56.5°F13.6°C 88% 4.0 mph SW6.4 kmh SW 7.0 mph11.3 kmh 29.93 in1013.5 mb 0.00 in0.0 mm 0.00 in0.0 mm 0.00 in0.0 mm
06:00 AM 60.6°F15.9°C 57.0°F13.9°C 88% 5.0 mph WSW8.0 kmh WSW 7.0 mph11.3 kmh 29.93 in1013.5 mb 0.00 in0.0 mm 0.00 in0.0 mm 0.00 in0.0 mm
06:05 AM 61.2°F16.2°C 57.2°F14.0°C 87% 6.0 mph WSW9.7 kmh WSW 10.0 mph16.1 kmh 29.93 in1013.5 mb 0.00 in0.0 mm 0.00 in0.0 mm 0.00 in0.0 mm
06:10 AM 61.6°F16.4°C 57.3°F14.1°C 86% 4.0 mph WSW6.4 kmh WSW 11.0 mph17.7 kmh 29.93 in1013.5 mb 0.00 in0.0 mm 0.00 in0.0 mm 0.00 in0.0 mm
06:15 AM 61.8°F16.6°C 57.2°F14.0°C 85% 7.0 mph WNW11.3 kmh WNW 13.0 mph20.9 kmh 29.93 in1013.5 mb 0.00 in0.0 mm 0.00 in0.0 mm 0.00 in0.0 mm
06:20 AM 61.9°F16.6°C 57.6°F14.2°C 86% 3.0 mph WSW4.8 kmh WSW 14.0 mph22.5 kmh 29.93 in1013.5 mb 0.00 in0.0 mm 0.00 in0.0 mm 0.00 in0.0 mm
06:25 AM 61.8°F16.6°C 57.5°F14.2°C 86% 6.0 mph W9.7 kmh W 13.0 mph20.9 kmh 29.93 in1013.5 mb 0.00 in0.0 mm 0.00 in0.0 mm 0.00 in0.0 mm
06:30 AM 61.6°F16.4°C 57.3°F14.1°C 86% 8.0 mph WNW12.9 kmh WNW 18.0 mph29.0 kmh 29.93 in1013.5 mb 0.01 in0.3 mm 0.12 in3.0 mm 0.01 in0.3 mm
06:35 AM 61.3°F16.3°C 57.7°F14.3°C 88% 5.0 mph NW8.0 kmh NW 17.0 mph27.4 kmh 29.93 in1013.5 mb 0.02 in0.5 mm 0.12 in3.0 mm 0.02 in0.5 mm
06:40 AM 61.0°F16.1°C 57.7°F14.3°C 89% 7.0 mph W11.3 kmh W 15.0 mph24.1 kmh 29.93 in1013.5 mb 0.03 in0.8 mm 0.12 in3.0 mm 0.03 in0.8 mm
06:45 AM 60.7°F15.9°C 57.7°F14.3°C 90% 11.0 mph W17.7 kmh W 15.0 mph24.1 kmh 29.93 in1013.5 mb 0.04 in1.0 mm 0.12 in3.0 mm 0.04 in1.0 mm
06:50 AM 60.5°F15.8°C 57.8°F14.3°C 91% 9.0 mph WSW14.5 kmh WSW 19.0 mph30.6 kmh 29.93 in1013.5 mb 0.05 in1.3 mm 0.12 in3.0 mm 0.05 in1.3 mm
06:55 AM 60.6°F15.9°C 57.9°F14.4°C 91% 6.0 mph SW9.7 kmh SW 15.0 mph24.1 kmh 29.93 in1013.5 mb 0.05 in1.3 mm 0.00 in0.0 mm 0.05 in1.3 mm
07:00 AM 60.4°F15.8°C 58.0°F14.4°C 92% 2.0 mph WSW3.2 kmh WSW 11.0 mph17.7 kmh 29.94 in1013.9 mb 0.06 in1.5 mm 0.01 in0.3 mm 0.06 in1.5 mm
07:05 AM 60.4°F15.8°C 58.0°F14.4°C 92% 9.0 mph W14.5 kmh W 11.0 mph17.7 kmh 29.94 in1013.9 mb 0.06 in1.5 mm 0.00 in0.0 mm 0.06 in1.5 mm
07:10 AM 60.3°F15.7°C 57.9°F14.4°C 92% 6.0 mph WSW9.7 kmh WSW 8.0 mph12.9 kmh 29.94 in1013.9 mb 0.06 in1.5 mm 0.00 in0.0 mm 0.06 in1.5 mm
07:15 AM 60.3°F15.7°C 57.9°F14.4°C 92% 7.0 mph WSW11.3 kmh WSW 7.0 mph11.3 kmh 29.94 in1013.9 mb 0.08 in2.0 mm 0.24 in6.1 mm 0.08 in2.0 mm
07:20 AM 60.2°F15.7°C 57.8°F14.3°C 92% 2.0 mph WNW3.2 kmh WNW 7.0 mph11.3 kmh 29.94 in1013.9 mb 0.09 in2.3 mm 0.12 in3.0 mm 0.09 in2.3 mm
07:25 AM 60.2°F15.7°C 58.1°F14.5°C 93% 3.0 mph WNW4.8 kmh WNW 6.0 mph9.7 kmh 29.94 in1013.9 mb 0.10 in2.5 mm 0.12 in3.0 mm 0.10 in2.5 mm
07:30 AM 60.3°F15.7°C 58.2°F14.6°C 93% Calm Calm 5.0 mph8.0 kmh 29.93 in1013.5 mb 0.09 in2.3 mm 0.00 in0.0 mm 0.10 in2.5 mm
07:35 AM 60.4°F15.8°C 58.3°F14.6°C 93% Calm Calm 1.0 mph1.6 kmh 29.93 in1013.5 mb 0.09 in2.3 mm 0.00 in0.0 mm 0.11 in2.8 mm
07:40 AM 60.5°F15.8°C 58.4°F14.7°C 93% Calm Calm 1.0 mph1.6 kmh 29.93 in1013.5 mb 0.08 in2.0 mm 0.00 in0.0 mm 0.11 in2.8 mm
07:45 AM 60.7°F15.9°C 58.6°F14.8°C 93% 2.0 mph WNW3.2 kmh WNW 3.0 mph4.8 kmh 29.93 in1013.5 mb 0.07 in1.8 mm 0.00 in0.0 mm 0.11 in2.8 mm
07:50 AM 60.8°F16.0°C 58.7°F14.8°C 93% 4.0 mph WSW6.4 kmh WSW 5.0 mph8.0 kmh 29.93 in1013.5 mb 0.06 in1.5 mm 0.00 in0.0 mm 0.11 in2.8 mm
07:55 AM 60.9°F16.1°C 58.8°F14.9°C 93% 3.0 mph SW4.8 kmh SW 6.0 mph9.7 kmh 29.94 in1013.9 mb 0.06 in1.5 mm 0.00 in0.0 mm 0.11 in2.8 mm
08:00 AM 61.1°F16.2°C 59.0°F15.0°C 93% 3.0 mph SW4.8 kmh SW 7.0 mph11.3 kmh 29.94 in1013.9 mb 0.06 in1.5 mm 0.00 in0.0 mm 0.11 in2.8 mm
08:05 AM 61.2°F16.2°C 59.1°F15.1°C 93% 5.0 mph SW8.0 kmh SW 9.0 mph14.5 kmh 29.95 in1014.2 mb 0.06 in1.5 mm 0.00 in0.0 mm 0.11 in2.8 mm
08:10 AM 61.2°F16.2°C 59.1°F15.1°C 93% 2.0 mph S3.2 kmh S 8.0 mph12.9 kmh 29.94 in1013.9 mb 0.05 in1.3 mm 0.00 in0.0 mm 0.11 in2.8 mm
08:15 AM 61.4°F16.3°C 59.0°F15.0°C 92% 4.0 mph SSW6.4 kmh SSW 7.0 mph11.3 kmh 29.94 in1013.9 mb 0.03 in0.8 mm 0.00 in0.0 mm 0.11 in2.8 mm
08:20 AM 61.5°F16.4°C 59.4°F15.2°C 93% 2.0 mph SW3.2 kmh SW 5.0 mph8.0 kmh 29.93 in1013.5 mb 0.02 in0.5 mm 0.00 in0.0 mm 0.11 in2.8 mm
08:25 AM 61.9°F16.6°C 59.8°F15.4°C 93% 4.0 mph SSW6.4 kmh SSW 6.0 mph9.7 kmh 29.93 in1013.5 mb 0.01 in0.3 mm 0.00 in0.0 mm 0.11 in2.8 mm
08:30 AM 62.2°F16.8°C 59.8°F15.4°C 92% Calm Calm 5.0 mph8.0 kmh 29.93 in1013.5 mb 0.01 in0.3 mm 0.00 in0.0 mm 0.11 in2.8 mm
08:35 AM 62.3°F16.8°C 59.9°F15.5°C 92% 4.0 mph SW6.4 kmh SW 5.0 mph8.0 kmh 29.93 in1013.5 mb 0.00 in0.0 mm 0.00 in0.0 mm 0.11 in2.8 mm
08:40 AM 62.5°F16.9°C 59.8°F15.4°C 91% 2.0 mph SSW3.2 kmh SSW 5.0 mph8.0 kmh 29.93 in1013.5 mb 0.00 in0.0 mm 0.00 in0.0 mm 0.11 in2.8 mm
08:45 AM 62.8°F17.1°C 60.1°F15.6°C 91% 2.0 mph SSW3.2 kmh SSW 9.0 mph14.5 kmh 29.93 in1013.5 mb 0.00 in0.0 mm 0.00 in0.0 mm 0.11 in2.8 mm
08:50 AM 63.1°F17.3°C 60.4°F15.8°C 91% 2.0 mph S3.2 kmh S 6.0 mph9.7 kmh 29.93 in1013.5 mb 0.00 in0.0 mm 0.00 in0.0 mm 0.11 in2.8 mm
08:55 AM 63.7°F17.6°C 61.0°F16.1°C 91% 2.0 mph S3.2 kmh S 7.0 mph11.3 kmh 29.92 in1013.2 mb 0.00 in0.0 mm 0.00 in0.0 mm 0.11 in2.8 mm
09:00 AM 64.5°F18.1°C 61.8°F16.6°C 91% 2.0 mph S3.2 kmh S 7.0 mph11.3 kmh 29.92 in1013.2 mb 0.00 in0.0 mm 0.00 in0.0 mm 0.11 in2.8 mm
09:05 AM 65.4°F18.6°C 62.0°F16.7°C 89% 6.0 mph SW9.7 kmh SW 10.0 mph16.1 kmh 29.93 in1013.5 mb 0.00 in0.0 mm 0.00 in0.0 mm 0.11 in2.8 mm
09:10 AM 65.9°F18.8°C 61.9°F16.6°C 87% 6.0 mph SSW9.7 kmh SSW 7.0 mph11.3 kmh 29.93 in1013.5 mb 0.00 in0.0 mm 0.00 in0.0 mm 0.11 in2.8 mm
09:15 AM 65.9°F18.8°C 61.5°F16.4°C 86% 5.0 mph SW8.0 kmh SW 10.0 mph16.1 kmh 29.93 in1013.5 mb 0.00 in0.0 mm 0.00 in0.0 mm 0.11 in2.8 mm
09:20 AM 65.7°F18.7°C 61.0°F16.1°C 85% 2.0 mph S3.2 kmh S 7.0 mph11.3 kmh 29.93 in1013.5 mb 0.00 in0.0 mm 0.00 in0.0 mm 0.11 in2.8 mm
09:25 AM 65.5°F18.6°C 61.1°F16.2°C 86% 4.0 mph SW6.4 kmh SW 7.0 mph11.3 kmh 29.92 in1013.2 mb 0.00 in0.0 mm 0.00 in0.0 mm 0.11 in2.8 mm
09:30 AM 65.9°F18.8°C 61.9°F16.6°C 87% 3.0 mph SSW4.8 kmh SSW 5.0 mph8.0 kmh 29.93 in1013.5 mb 0.00 in0.0 mm 0.00 in0.0 mm 0.11 in2.8 mm
09:35 AM 66.3°F19.1°C 61.6°F16.4°C 85% 3.0 mph WSW4.8 kmh WSW 7.0 mph11.3 kmh 29.93 in1013.5 mb 0.00 in0.0 mm 0.00 in0.0 mm 0.11 in2.8 mm
09:40 AM 66.8°F19.3°C 61.4°F16.3°C 83% 1.0 mph S1.6 kmh S 5.0 mph8.0 kmh 29.92 in1013.2 mb 0.00 in0.0 mm 0.00 in0.0 mm 0.11 in2.8 mm
09:45 AM 67.4°F19.7°C 61.0°F16.1°C 80% Calm Calm 6.0 mph9.7 kmh 29.92 in1013.2 mb 0.00 in0.0 mm 0.00 in0.0 mm 0.11 in2.8 mm
09:50 AM 68.1°F20.1°C 62.0°F16.7°C 81% 2.0 mph SSE3.2 kmh SSE 5.0 mph8.0 kmh 29.92 in1013.2 mb 0.00 in0.0 mm 0.00 in0.0 mm 0.11 in2.8 mm
09:55 AM 68.4°F20.2°C 61.9°F16.6°C 80% 2.0 mph S3.2 kmh S 5.0 mph8.0 kmh 29.92 in1013.2 mb 0.00 in0.0 mm 0.00 in0.0 mm 0.11 in2.8 mm
10:00 AM 68.4°F20.2°C 59.7°F15.4°C 74% 3.0 mph S4.8 kmh S 5.0 mph8.0 kmh 29.91 in1012.9 mb 0.00 in0.0 mm 0.00 in0.0 mm 0.11 in2.8 mm
10:05 AM 68.2°F20.1°C 60.7°F15.9°C 77% 4.0 mph S6.4 kmh S 6.0 mph9.7 kmh 29.91 in1012.9 mb 0.00 in0.0 mm 0.00 in0.0 mm 0.11 in2.8 mm
10:10 AM 68.3°F20.2°C 61.5°F16.4°C 79% 1.0 mph SSE1.6 kmh SSE 5.0 mph8.0 kmh 29.91 in1012.9 mb 0.00 in0.0 mm 0.00 in0.0 mm 0.11 in2.8 mm
10:15 AM 68.2°F20.1°C 60.7°F15.9°C 77% 2.0 mph SSW3.2 kmh SSW 4.0 mph6.4 kmh 29.91 in1012.9 mb 0.00 in0.0 mm 0.00 in0.0 mm 0.11 in2.8 mm
10:20 AM 68.2°F20.1°C 60.7°F15.9°C 77% Calm Calm 5.0 mph8.0 kmh 29.91 in1012.9 mb 0.00 in0.0 mm 0.00 in0.0 mm 0.11 in2.8 mm
10:25 AM 68.2°F20.1°C 60.3°F15.7°C 76% Calm Calm 4.0 mph6.4 kmh 29.91 in1012.9 mb 0.00 in0.0 mm 0.00 in0.0 mm 0.11 in2.8 mm
10:30 AM 68.6°F20.3°C 61.0°F16.1°C 77% 1.0 mph SE1.6 kmh SE 3.0 mph4.8 kmh 29.91 in1012.9 mb 0.00 in0.0 mm 0.00 in0.0 mm 0.11 in2.8 mm
10:35 AM 69.5°F20.8°C 61.9°F16.6°C 77% 2.0 mph SW3.2 kmh SW 4.0 mph6.4 kmh 29.91 in1012.9 mb 0.00 in0.0 mm 0.00 in0.0 mm 0.11 in2.8 mm
10:40 AM 69.9°F21.1°C 61.2°F16.2°C 74% 2.0 mph WNW3.2 kmh WNW 5.0 mph8.0 kmh 29.90 in1012.5 mb 0.00 in0.0 mm 0.00 in0.0 mm 0.11 in2.8 mm
10:45 AM 70.1°F21.2°C 60.2°F15.7°C 71% 3.0 mph SW4.8 kmh SW 5.0 mph8.0 kmh 29.90 in1012.5 mb 0.00 in0.0 mm 0.00 in0.0 mm 0.11 in2.8 mm
10:50 AM 70.8°F21.6°C 62.4°F16.9°C 75% 2.0 mph W3.2 kmh W 4.0 mph6.4 kmh 29.91 in1012.9 mb 0.00 in0.0 mm 0.00 in0.0 mm 0.11 in2.8 mm
10:55 AM 71.2°F21.8°C 60.9°F16.1°C 70% 4.0 mph SSW6.4 kmh SSW 4.0 mph6.4 kmh 29.90 in1012.5 mb 0.00 in0.0 mm 0.00 in0.0 mm 0.11 in2.8 mm
11:00 AM 71.5°F21.9°C 60.7°F15.9°C 69% 3.0 mph S4.8 kmh S 4.0 mph6.4 kmh 29.90 in1012.5 mb 0.00 in0.0 mm 0.00 in0.0 mm 0.11 in2.8 mm
11:05 AM 71.8°F22.1°C 63.4°F17.4°C 75% 2.0 mph N3.2 kmh N 4.0 mph6.4 kmh 29.90 in1012.5 mb 0.00 in0.0 mm 0.00 in0.0 mm 0.11 in2.8 mm
11:10 AM 72.1°F22.3°C 62.5°F16.9°C 72% 2.0 mph N3.2 kmh N 6.0 mph9.7 kmh 29.90 in1012.5 mb 0.00 in0.0 mm 0.00 in0.0 mm 0.11 in2.8 mm
11:15 AM 71.5°F21.9°C 61.1°F16.2°C 70% 5.0 mph NE8.0 kmh NE 7.0 mph11.3 kmh 29.90 in1012.5 mb 0.00 in0.0 mm 0.00 in0.0 mm 0.11 in2.8 mm
11:20 AM 70.7°F21.5°C 61.6°F16.4°C 73% Calm Calm 6.0 mph9.7 kmh 29.90 in1012.5 mb 0.00 in0.0 mm 0.00 in0.0 mm 0.11 in2.8 mm
11:25 AM 70.5°F21.4°C 61.4°F16.3°C 73% 1.0 mph N1.6 kmh N 4.0 mph6.4 kmh 29.89 in1012.2 mb 0.00 in0.0 mm 0.00 in0.0 mm 0.11 in2.8 mm
11:30 AM 71.3°F21.8°C 62.1°F16.7°C 73% 1.0 mph SW1.6 kmh SW 3.0 mph4.8 kmh 29.89 in1012.2 mb 0.00 in0.0 mm 0.00 in0.0 mm 0.11 in2.8 mm
11:35 AM 72.3°F22.4°C 60.2°F15.7°C 66% 3.0 mph SW4.8 kmh SW 3.0 mph4.8 kmh 29.89 in1012.2 mb 0.00 in0.0 mm 0.00 in0.0 mm 0.11 in2.8 mm
11:40 AM 71.9°F22.2°C 60.3°F15.7°C 67% 3.0 mph W4.8 kmh W 5.0 mph8.0 kmh 29.89 in1012.2 mb 0.00 in0.0 mm 0.00 in0.0 mm 0.11 in2.8 mm
11:45 AM 71.7°F22.1°C 60.1°F15.6°C 67% Calm Calm 4.0 mph6.4 kmh 29.89 in1012.2 mb 0.00 in0.0 mm 0.00 in0.0 mm 0.11 in2.8 mm
11:50 AM 71.4°F21.9°C 59.8°F15.4°C 67% 4.0 mph WSW6.4 kmh WSW 4.0 mph6.4 kmh 29.89 in1012.2 mb 0.00 in0.0 mm 0.00 in0.0 mm 0.11 in2.8 mm
11:55 AM 71.6°F22.0°C 60.0°F15.6°C 67% 1.0 mph W1.6 kmh W 4.0 mph6.4 kmh 29.89 in1012.2 mb 0.00 in0.0 mm 0.00 in0.0 mm 0.11 in2.8 mm
12:00 PM 72.4°F22.4°C 60.3°F15.7°C 66% 2.0 mph NNE3.2 kmh NNE 3.0 mph4.8 kmh 29.89 in1012.2 mb 0.00 in0.0 mm 0.00 in0.0 mm 0.11 in2.8 mm
12:05 PM 72.9°F22.7°C 59.5°F15.3°C 63% 1.0 mph NNE1.6 kmh NNE 3.0 mph4.8 kmh 29.89 in1012.2 mb 0.00 in0.0 mm 0.00 in0.0 mm 0.11 in2.8 mm
12:10 PM 73.5°F23.1°C 59.2°F15.1°C 61% 1.0 mph N1.6 kmh N 3.0 mph4.8 kmh 29.89 in1012.2 mb 0.00 in0.0 mm 0.00 in0.0 mm 0.11 in2.8 mm
12:15 PM 74.0°F23.3°C 62.7°F17.1°C 68% 4.0 mph W6.4 kmh W 5.0 mph8.0 kmh 29.88 in1011.9 mb 0.00 in0.0 mm 0.00 in0.0 mm 0.11 in2.8 mm
12:20 PM 74.4°F23.6°C 60.5°F15.8°C 62% 4.0 mph N6.4 kmh N 5.0 mph8.0 kmh 29.88 in1011.9 mb 0.00 in0.0 mm 0.00 in0.0 mm 0.11 in2.8 mm
12:25 PM 73.9°F23.3°C 61.8°F16.6°C 66% Calm Calm 7.0 mph11.3 kmh 29.87 in1011.5 mb 0.00 in0.0 mm 0.00 in0.0 mm 0.11 in2.8 mm
12:30 PM 73.9°F23.3°C 61.8°F16.6°C 66% Calm Calm 4.0 mph6.4 kmh 29.87 in1011.5 mb 0.00 in0.0 mm 0.00 in0.0 mm 0.11 in2.8 mm
12:35 PM 74.5°F23.6°C 60.6°F15.9°C 62% 5.0 mph NW8.0 kmh NW 5.0 mph8.0 kmh 29.87 in1011.5 mb 0.00 in0.0 mm 0.00 in0.0 mm 0.11 in2.8 mm
12:40 PM 74.6°F23.7°C 58.8°F14.9°C 58% Calm Calm 5.0 mph8.0 kmh 29.87 in1011.5 mb 0.00 in0.0 mm 0.00 in0.0 mm 0.11 in2.8 mm
12:45 PM 74.6°F23.7°C 60.2°F15.7°C 61% 2.0 mph WSW3.2 kmh WSW 3.0 mph4.8 kmh 29.87 in1011.5 mb 0.00 in0.0 mm 0.00 in0.0 mm 0.11 in2.8 mm
12:50 PM 75.1°F23.9°C 60.2°F15.7°C 60% 2.0 mph NW3.2 kmh NW 3.0 mph4.8 kmh 29.87 in1011.5 mb 0.00 in0.0 mm 0.00 in0.0 mm 0.11 in2.8 mm
12:55 PM 75.3°F24.1°C 61.3°F16.3°C 62% 4.0 mph N6.4 kmh N 5.0 mph8.0 kmh 29.87 in1011.5 mb 0.00 in0.0 mm 0.00 in0.0 mm 0.11 in2.8 mm
01:00 PM 75.1°F23.9°C 59.7°F15.4°C 59% 4.0 mph N6.4 kmh N 5.0 mph8.0 kmh 29.86 in1011.2 mb 0.00 in0.0 mm 0.00 in0.0 mm 0.11 in2.8 mm
01:05 PM 75.3°F24.1°C 58.4°F14.7°C 56% 2.0 mph N3.2 kmh N 5.0 mph8.0 kmh 29.86 in1011.2 mb 0.00 in0.0 mm 0.00 in0.0 mm 0.11 in2.8 mm
01:10 PM 75.8°F24.3°C 61.3°F16.3°C 61% 2.0 mph N3.2 kmh N 7.0 mph11.3 kmh 29.86 in1011.2 mb 0.00 in0.0 mm 0.00 in0.0 mm 0.11 in2.8 mm
01:15 PM 76.0°F24.4°C 58.6°F14.8°C 55% 3.0 mph W4.8 kmh W 7.0 mph11.3 kmh 29.86 in1011.2 mb 0.00 in0.0 mm 0.00 in0.0 mm 0.11 in2.8 mm
01:20 PM 76.3°F24.6°C 57.3°F14.1°C 52% 3.0 mph NE4.8 kmh NE 5.0 mph8.0 kmh 29.85 in1010.8 mb 0.00 in0.0 mm 0.00 in0.0 mm 0.11 in2.8 mm
01:25 PM 75.9°F24.4°C 58.5°F14.7°C 55% 2.0 mph NW3.2 kmh NW 7.0 mph11.3 kmh 29.85 in1010.8 mb 0.00 in0.0 mm 0.00 in0.0 mm 0.11 in2.8 mm
01:30 PM 76.1°F24.5°C 59.7°F15.4°C 57% 5.0 mph NE8.0 kmh NE 6.0 mph9.7 kmh 29.85 in1010.8 mb 0.00 in0.0 mm 0.00 in0.0 mm 0.11 in2.8 mm
01:35 PM 76.2°F24.6°C 58.8°F14.9°C 55% 1.0 mph NW1.6 kmh NW 7.0 mph11.3 kmh 29.85 in1010.8 mb 0.00 in0.0 mm 0.00 in0.0 mm 0.11 in2.8 mm
01:40 PM 76.7°F24.8°C 57.7°F14.3°C 52% 1.0 mph WNW1.6 kmh WNW 9.0 mph14.5 kmh 29.85 in1010.8 mb 0.00 in0.0 mm 0.00 in0.0 mm 0.11 in2.8 mm
01:45 PM 77.3°F25.2°C 58.8°F14.9°C 53% 3.0 mph 4.8 kmh 5.0 mph8.0 kmh 29.84 in1010.5 mb 0.00 in0.0 mm 0.00 in0.0 mm 0.11 in2.8 mm
01:50 PM 76.9°F24.9°C 58.9°F14.9°C 54% 1.0 mph NW1.6 kmh NW 8.0 mph12.9 kmh 29.84 in1010.5 mb 0.00 in0.0 mm 0.00 in0.0 mm 0.11 in2.8 mm
01:55 PM 76.8°F24.9°C 57.2°F14.0°C 51% 2.0 mph NNE3.2 kmh NNE 9.0 mph14.5 kmh 29.84 in1010.5 mb 0.00 in0.0 mm 0.00 in0.0 mm 0.11 in2.8 mm
02:00 PM 77.0°F25.0°C 60.0°F15.6°C 56% 4.0 mph NNW6.4 kmh NNW 7.0 mph11.3 kmh 29.83 in1010.2 mb 0.00 in0.0 mm 0.00 in0.0 mm 0.11 in2.8 mm
02:05 PM 77.3°F25.2°C 60.3°F15.7°C 56% 2.0 mph N3.2 kmh N 5.0 mph8.0 kmh 29.83 in1010.2 mb 0.00 in0.0 mm 0.00 in0.0 mm 0.11 in2.8 mm
02:10 PM 77.9°F25.5°C 60.9°F16.1°C 56% 3.0 mph WSW4.8 kmh WSW 4.0 mph6.4 kmh 29.83 in1010.2 mb 0.00 in0.0 mm 0.00 in0.0 mm 0.11 in2.8 mm
02:15 PM 78.7°F25.9°C 59.0°F15.0°C 51% 1.0 mph W1.6 kmh W 6.0 mph9.7 kmh 29.83 in1010.2 mb 0.00 in0.0 mm 0.00 in0.0 mm 0.11 in2.8 mm
02:20 PM 78.9°F26.1°C 60.2°F15.7°C 53% 4.0 mph NW6.4 kmh NW 4.0 mph6.4 kmh 29.82 in1009.8 mb 0.00 in0.0 mm 0.00 in0.0 mm 0.11 in2.8 mm
02:25 PM 78.8°F26.0°C 59.6°F15.3°C 52% 4.0 mph WSW6.4 kmh WSW 5.0 mph8.0 kmh 29.82 in1009.8 mb 0.00 in0.0 mm 0.00 in0.0 mm 0.11 in2.8 mm
02:30 PM 79.5°F26.4°C 60.3°F15.7°C 52% 3.0 mph NW4.8 kmh NW 6.0 mph9.7 kmh 29.82 in1009.8 mb 0.00 in0.0 mm 0.00 in0.0 mm 0.11 in2.8 mm
02:35 PM 79.1°F26.2°C 60.4°F15.8°C 53% 1.0 mph WNW1.6 kmh WNW 5.0 mph8.0 kmh 29.82 in1009.8 mb 0.00 in0.0 mm 0.00 in0.0 mm 0.11 in2.8 mm
02:40 PM 78.7°F25.9°C 57.9°F14.4°C 49% 3.0 mph NW4.8 kmh NW 7.0 mph11.3 kmh 29.82 in1009.8 mb 0.00 in0.0 mm 0.00 in0.0 mm 0.11 in2.8 mm
02:45 PM 78.5°F25.8°C 58.8°F14.9°C 51% 4.0 mph WNW6.4 kmh WNW 5.0 mph8.0 kmh 29.82 in1009.8 mb 0.00 in0.0 mm 0.00 in0.0 mm 0.11 in2.8 mm
02:50 PM 78.3°F25.7°C 59.2°F15.1°C 52% 2.0 mph WNW3.2 kmh WNW 4.0 mph6.4 kmh 29.82 in1009.8 mb 0.00 in0.0 mm 0.00 in0.0 mm 0.11 in2.8 mm
02:55 PM 78.1°F25.6°C 59.5°F15.3°C 53% 1.0 mph NW1.6 kmh NW 3.0 mph4.8 kmh 29.82 in1009.8 mb 0.00 in0.0 mm 0.00 in0.0 mm 0.11 in2.8 mm
03:00 PM 78.0°F25.6°C 58.9°F14.9°C 52% Calm Calm 3.0 mph4.8 kmh 29.82 in1009.8 mb 0.00 in0.0 mm 0.00 in0.0 mm 0.11 in2.8 mm
03:05 PM 77.9°F25.5°C 57.7°F14.3°C 50% 1.0 mph NNE1.6 kmh NNE 4.0 mph6.4 kmh 29.82 in1009.8 mb 0.00 in0.0 mm 0.00 in0.0 mm 0.11 in2.8 mm
03:10 PM 76.6°F24.8°C 56.5°F13.6°C 50% 4.0 mph NE6.4 kmh NE 10.0 mph16.1 kmh 29.82 in1009.8 mb 0.00 in0.0 mm 0.00 in0.0 mm 0.11 in2.8 mm
03:15 PM 76.2°F24.6°C 59.8°F15.4°C 57% 4.0 mph 6.4 kmh 6.0 mph9.7 kmh 29.83 in1010.2 mb 0.00 in0.0 mm 0.00 in0.0 mm 0.11 in2.8 mm
03:20 PM 76.0°F24.4°C 58.6°F14.8°C 55% 1.0 mph N1.6 kmh N 7.0 mph11.3 kmh 29.83 in1010.2 mb 0.00 in0.0 mm 0.00 in0.0 mm 0.11 in2.8 mm
03:25 PM 75.8°F24.3°C 58.9°F14.9°C 56% 4.0 mph N6.4 kmh N 9.0 mph14.5 kmh 29.83 in1010.2 mb 0.00 in0.0 mm 0.00 in0.0 mm 0.11 in2.8 mm
03:30 PM 76.0°F24.4°C 60.1°F15.6°C 58% 1.0 mph 1.6 kmh 5.0 mph8.0 kmh 29.82 in1009.8 mb 0.00 in0.0 mm 0.00 in0.0 mm 0.11 in2.8 mm
03:35 PM 76.3°F24.6°C 59.9°F15.5°C 57% 2.0 mph NW3.2 kmh NW 5.0 mph8.0 kmh 29.82 in1009.8 mb 0.00 in0.0 mm 0.00 in0.0 mm 0.11 in2.8 mm
03:40 PM 75.9°F24.4°C 57.5°F14.2°C 53% 4.0 mph N6.4 kmh N 8.0 mph12.9 kmh 29.83 in1010.2 mb 0.00 in0.0 mm 0.00 in0.0 mm 0.11 in2.8 mm
03:45 PM 75.4°F24.1°C 56.5°F13.6°C 52% 4.0 mph NNE6.4 kmh NNE 8.0 mph12.9 kmh 29.83 in1010.2 mb 0.00 in0.0 mm 0.00 in0.0 mm 0.11 in2.8 mm
03:50 PM 75.3°F24.1°C 57.4°F14.1°C 54% 3.0 mph N4.8 kmh N 7.0 mph11.3 kmh 29.83 in1010.2 mb 0.00 in0.0 mm 0.00 in0.0 mm 0.11 in2.8 mm
03:55 PM 75.2°F24.0°C 57.3°F14.1°C 54% 3.0 mph N4.8 kmh N 5.0 mph8.0 kmh 29.83 in1010.2 mb 0.00 in0.0 mm 0.00 in0.0 mm 0.11 in2.8 mm
04:00 PM 75.0°F23.9°C 57.2°F14.0°C 54% 9.0 mph 14.5 kmh 9.0 mph14.5 kmh 29.83 in1010.2 mb 0.00 in0.0 mm 0.00 in0.0 mm 0.11 in2.8 mm
04:05 PM 74.7°F23.7°C 56.9°F13.8°C 54% 1.0 mph N1.6 kmh N 9.0 mph14.5 kmh 29.83 in1010.2 mb 0.00 in0.0 mm 0.00 in0.0 mm 0.11 in2.8 mm
04:10 PM 74.6°F23.7°C 56.8°F13.8°C 54% Calm Calm 6.0 mph9.7 kmh 29.83 in1010.2 mb 0.00 in0.0 mm 0.00 in0.0 mm 0.11 in2.8 mm
04:15 PM 74.6°F23.7°C 57.3°F14.1°C 55% 4.0 mph N6.4 kmh N 5.0 mph8.0 kmh 29.84 in1010.5 mb 0.00 in0.0 mm 0.00 in0.0 mm 0.11 in2.8 mm
04:20 PM 74.3°F23.5°C 57.5°F14.2°C 56% 1.0 mph NNW1.6 kmh NNW 5.0 mph8.0 kmh 29.84 in1010.5 mb 0.00 in0.0 mm 0.00 in0.0 mm 0.11 in2.8 mm
04:25 PM 74.2°F23.4°C 57.4°F14.1°C 56% Calm Calm 6.0 mph9.7 kmh 29.84 in1010.5 mb 0.00 in0.0 mm 0.00 in0.0 mm 0.11 in2.8 mm
04:30 PM 74.3°F23.5°C 59.0°F15.0°C 59% 2.0 mph NNW3.2 kmh NNW 4.0 mph6.4 kmh 29.84 in1010.5 mb 0.00 in0.0 mm 0.00 in0.0 mm 0.11 in2.8 mm
04:35 PM 74.5°F23.6°C 59.2°F15.1°C 59% 1.0 mph N1.6 kmh N 3.0 mph4.8 kmh 29.84 in1010.5 mb 0.00 in0.0 mm 0.00 in0.0 mm 0.11 in2.8 mm
04:40 PM 74.7°F23.7°C 59.4°F15.2°C 59% 1.0 mph N1.6 kmh N 4.0 mph6.4 kmh 29.83 in1010.2 mb 0.00 in0.0 mm 0.00 in0.0 mm 0.11 in2.8 mm
04:45 PM 74.6°F23.7°C 57.8°F14.3°C 56% 3.0 mph NE4.8 kmh NE 5.0 mph8.0 kmh 29.83 in1010.2 mb 0.00 in0.0 mm 0.00 in0.0 mm 0.11 in2.8 mm
04:50 PM 74.3°F23.5°C 56.5°F13.6°C 54% 2.0 mph NE3.2 kmh NE 4.0 mph6.4 kmh 29.83 in1010.2 mb 0.00 in0.0 mm 0.00 in0.0 mm 0.11 in2.8 mm
04:55 PM 74.2°F23.4°C 57.9°F14.4°C 57% 3.0 mph E4.8 kmh E 5.0 mph8.0 kmh 29.83 in1010.2 mb 0.00 in0.0 mm 0.00 in0.0 mm 0.11 in2.8 mm
05:00 PM 73.9°F23.3°C 57.6°F14.2°C 57% 4.0 mph NE6.4 kmh NE 4.0 mph6.4 kmh 29.83 in1010.2 mb 0.00 in0.0 mm 0.00 in0.0 mm 0.11 in2.8 mm
05:05 PM 73.8°F23.2°C 57.5°F14.2°C 57% 5.0 mph NE8.0 kmh NE 6.0 mph9.7 kmh 29.82 in1009.8 mb 0.00 in0.0 mm 0.00 in0.0 mm 0.11 in2.8 mm
05:10 PM 73.7°F23.2°C 57.5°F14.2°C 57% 4.0 mph ENE6.4 kmh ENE 6.0 mph9.7 kmh 29.81 in1009.5 mb 0.00 in0.0 mm 0.00 in0.0 mm 0.11 in2.8 mm
05:15 PM 73.6°F23.1°C 58.3°F14.6°C 59% 6.0 mph NE9.7 kmh NE 10.0 mph16.1 kmh 29.81 in1009.5 mb 0.00 in0.0 mm 0.00 in0.0 mm 0.11 in2.8 mm
05:20 PM 73.4°F23.0°C 58.1°F14.5°C 59% 1.0 mph E1.6 kmh E 9.0 mph14.5 kmh 29.81 in1009.5 mb 0.00 in0.0 mm 0.00 in0.0 mm 0.11 in2.8 mm
05:25 PM 73.3°F22.9°C 58.0°F14.4°C 59% 3.0 mph NE4.8 kmh NE 6.0 mph9.7 kmh 29.80 in1009.1 mb 0.00 in0.0 mm 0.00 in0.0 mm 0.11 in2.8 mm
05:30 PM 73.2°F22.9°C 58.4°F14.7°C 60% 5.0 mph ENE8.0 kmh ENE 7.0 mph11.3 kmh 29.81 in1009.5 mb 0.00 in0.0 mm 0.00 in0.0 mm 0.11 in2.8 mm
05:35 PM 73.2°F22.9°C 59.3°F15.2°C 62% 4.0 mph ENE6.4 kmh ENE 5.0 mph8.0 kmh 29.81 in1009.5 mb 0.00 in0.0 mm 0.00 in0.0 mm 0.11 in2.8 mm
05:40 PM 73.4°F23.0°C 60.0°F15.6°C 63% 2.0 mph NNE3.2 kmh NNE 3.0 mph4.8 kmh 29.80 in1009.1 mb 0.00 in0.0 mm 0.00 in0.0 mm 0.11 in2.8 mm
05:45 PM 73.9°F23.3°C 60.0°F15.6°C 62% Calm Calm 4.0 mph6.4 kmh 29.80 in1009.1 mb 0.00 in0.0 mm 0.00 in0.0 mm 0.11 in2.8 mm
05:50 PM 74.4°F23.6°C 59.1°F15.1°C 59% 2.0 mph NE3.2 kmh NE 4.0 mph6.4 kmh 29.80 in1009.1 mb 0.00 in0.0 mm 0.00 in0.0 mm 0.11 in2.8 mm
05:55 PM 75.0°F23.9°C 60.1°F15.6°C 60% 2.0 mph NNE3.2 kmh NNE 6.0 mph9.7 kmh 29.80 in1009.1 mb 0.00 in0.0 mm 0.00 in0.0 mm 0.11 in2.8 mm
06:00 PM 75.0°F23.9°C 58.7°F14.8°C 57% 2.0 mph NE3.2 kmh NE 5.0 mph8.0 kmh 29.80 in1009.1 mb 0.00 in0.0 mm 0.00 in0.0 mm 0.11 in2.8 mm
06:05 PM 74.9°F23.8°C 58.1°F14.5°C 56% 3.0 mph NNE4.8 kmh NNE 6.0 mph9.7 kmh 29.80 in1009.1 mb 0.00 in0.0 mm 0.00 in0.0 mm 0.11 in2.8 mm
06:10 PM 74.7°F23.7°C 57.9°F14.4°C 56% 4.0 mph NE6.4 kmh NE 9.0 mph14.5 kmh 29.80 in1009.1 mb 0.00 in0.0 mm 0.00 in0.0 mm 0.11 in2.8 mm
06:15 PM 74.6°F23.7°C 57.8°F14.3°C 56% 2.0 mph NE3.2 kmh NE 11.0 mph17.7 kmh 29.80 in1009.1 mb 0.00 in0.0 mm 0.00 in0.0 mm 0.11 in2.8 mm
06:20 PM 74.4°F23.6°C 57.6°F14.2°C 56% 7.0 mph NE11.3 kmh NE 7.0 mph11.3 kmh 29.80 in1009.1 mb 0.00 in0.0 mm 0.00 in0.0 mm 0.11 in2.8 mm
06:25 PM 74.2°F23.4°C 57.4°F14.1°C 56% 3.0 mph NE4.8 kmh NE 7.0 mph11.3 kmh 29.80 in1009.1 mb 0.00 in0.0 mm 0.00 in0.0 mm 0.11 in2.8 mm
06:30 PM 74.1°F23.4°C 57.8°F14.3°C 57% 4.0 mph NNE6.4 kmh NNE 6.0 mph9.7 kmh 29.80 in1009.1 mb 0.00 in0.0 mm 0.00 in0.0 mm 0.11 in2.8 mm
06:35 PM 74.0°F23.3°C 57.2°F14.0°C 56% 3.0 mph ENE4.8 kmh ENE 6.0 mph9.7 kmh 29.80 in1009.1 mb 0.00 in0.0 mm 0.00 in0.0 mm 0.11 in2.8 mm
06:40 PM 73.9°F23.3°C 57.1°F13.9°C 56% 4.0 mph NE6.4 kmh NE 6.0 mph9.7 kmh 29.80 in1009.1 mb 0.00 in0.0 mm 0.00 in0.0 mm 0.11 in2.8 mm
06:45 PM 73.8°F23.2°C 57.5°F14.2°C 57% 2.0 mph ENE3.2 kmh ENE 5.0 mph8.0 kmh 29.80 in1009.1 mb 0.00 in0.0 mm 0.00 in0.0 mm 0.11 in2.8 mm
06:50 PM 73.8°F23.2°C 58.0°F14.4°C 58% Calm Calm 3.0 mph4.8 kmh 29.80 in1009.1 mb 0.00 in0.0 mm 0.00 in0.0 mm 0.11 in2.8 mm
06:55 PM 73.6°F23.1°C 58.3°F14.6°C 59% 2.0 mph NE3.2 kmh NE 3.0 mph4.8 kmh 29.81 in1009.5 mb 0.00 in0.0 mm 0.00 in0.0 mm 0.11 in2.8 mm
07:00 PM 73.2°F22.9°C 58.4°F14.7°C 60% Calm Calm 2.0 mph3.2 kmh 29.81 in1009.5 mb 0.00 in0.0 mm 0.00 in0.0 mm 0.11 in2.8 mm
07:05 PM 73.0°F22.8°C 59.1°F15.1°C 62% Calm Calm -- 29.81 in1009.5 mb 0.00 in0.0 mm 0.00 in0.0 mm 0.11 in2.8 mm
07:10 PM 72.8°F22.7°C 59.0°F15.0°C 62% Calm Calm -- 29.81 in1009.5 mb 0.00 in0.0 mm 0.00 in0.0 mm 0.11 in2.8 mm
07:15 PM 72.6°F22.6°C 58.8°F14.9°C 62% Calm Calm -- 29.81 in1009.5 mb 0.00 in0.0 mm 0.00 in0.0 mm 0.11 in2.8 mm
07:20 PM 72.4°F22.4°C 59.0°F15.0°C 63% Calm Calm -- 29.81 in1009.5 mb 0.00 in0.0 mm 0.00 in0.0 mm 0.11 in2.8 mm
07:25 PM 72.2°F22.3°C 58.8°F14.9°C 63% Calm Calm -- 29.82 in1009.8 mb 0.00 in0.0 mm 0.00 in0.0 mm 0.11 in2.8 mm
07:30 PM 72.0°F22.2°C 58.7°F14.8°C 63% Calm Calm -- 29.82 in1009.8 mb 0.00 in0.0 mm 0.00 in0.0 mm 0.11 in2.8 mm
07:35 PM 71.8°F22.1°C 58.9°F14.9°C 64% 3.0 mph NE4.8 kmh NE 5.0 mph8.0 kmh 29.82 in1009.8 mb 0.00 in0.0 mm 0.00 in0.0 mm 0.11 in2.8 mm
07:40 PM 71.5°F21.9°C 58.6°F14.8°C 64% 2.0 mph NE3.2 kmh NE 5.0 mph8.0 kmh 29.82 in1009.8 mb 0.00 in0.0 mm 0.00 in0.0 mm 0.11 in2.8 mm
07:45 PM 71.2°F21.8°C 59.6°F15.3°C 67% 1.0 mph NE1.6 kmh NE 3.0 mph4.8 kmh 29.82 in1009.8 mb 0.00 in0.0 mm 0.00 in0.0 mm 0.11 in2.8 mm
07:50 PM 70.9°F21.6°C 59.7°F15.4°C 68% 1.0 mph NE1.6 kmh NE 3.0 mph4.8 kmh 29.82 in1009.8 mb 0.00 in0.0 mm 0.00 in0.0 mm 0.11 in2.8 mm
07:55 PM 70.6°F21.4°C 59.5°F15.3°C 68% 1.0 mph NE1.6 kmh NE 3.0 mph4.8 kmh 29.82 in1009.8 mb 0.00 in0.0 mm 0.00 in0.0 mm 0.11 in2.8 mm
08:00 PM 70.4°F21.3°C 59.3°F15.2°C 68% Calm Calm 2.0 mph3.2 kmh 29.83 in1010.2 mb 0.00 in0.0 mm 0.00 in0.0 mm 0.11 in2.8 mm
08:05 PM 70.3°F21.3°C 59.6°F15.3°C 69% Calm Calm 3.0 mph4.8 kmh 29.82 in1009.8 mb 0.00 in0.0 mm 0.00 in0.0 mm 0.11 in2.8 mm
08:10 PM 70.1°F21.2°C 59.4°F15.2°C 69% Calm Calm -- 29.82 in1009.8 mb 0.00 in0.0 mm 0.00 in0.0 mm 0.11 in2.8 mm
08:15 PM 69.9°F21.1°C 59.6°F15.3°C 70% Calm Calm -- 29.82 in1009.8 mb 0.00 in0.0 mm 0.00 in0.0 mm 0.11 in2.8 mm
08:20 PM 69.8°F21.0°C 59.5°F15.3°C 70% Calm Calm 2.0 mph3.2 kmh 29.83 in1010.2 mb 0.00 in0.0 mm 0.00 in0.0 mm 0.11 in2.8 mm
08:25 PM 69.6°F20.9°C 59.3°F15.2°C 70% Calm Calm 1.0 mph1.6 kmh 29.83 in1010.2 mb 0.00 in0.0 mm 0.00 in0.0 mm 0.11 in2.8 mm
08:30 PM 69.3°F20.7°C 59.0°F15.0°C 70% 1.0 mph SSE1.6 kmh SSE 3.0 mph4.8 kmh 29.83 in1010.2 mb 0.00 in0.0 mm 0.00 in0.0 mm 0.11 in2.8 mm
08:35 PM 69.0°F20.6°C 59.1°F15.1°C 71% Calm Calm 2.0 mph3.2 kmh 29.83 in1010.2 mb 0.00 in0.0 mm 0.00 in0.0 mm 0.11 in2.8 mm
08:40 PM 68.9°F20.5°C 59.8°F15.4°C 73% Calm Calm -- 29.83 in1010.2 mb 0.00 in0.0 mm 0.00 in0.0 mm 0.11 in2.8 mm
08:45 PM 68.8°F20.4°C 59.7°F15.4°C 73% Calm Calm -- 29.83 in1010.2 mb 0.00 in0.0 mm 0.00 in0.0 mm 0.11 in2.8 mm
08:50 PM 68.6°F20.3°C 59.5°F15.3°C 73% Calm Calm -- 29.83 in1010.2 mb 0.00 in0.0 mm 0.00 in0.0 mm 0.11 in2.8 mm
08:55 PM 68.4°F20.2°C 59.3°F15.2°C 73% Calm Calm -- 29.83 in1010.2 mb 0.00 in0.0 mm 0.00 in0.0 mm 0.11 in2.8 mm
09:00 PM 68.2°F20.1°C 58.8°F14.9°C 72% Calm Calm -- 29.84 in1010.5 mb 0.00 in0.0 mm 0.00 in0.0 mm 0.11 in2.8 mm
09:05 PM 68.1°F20.1°C 59.4°F15.2°C 74% Calm Calm -- 29.83 in1010.2 mb 0.00 in0.0 mm 0.00 in0.0 mm 0.11 in2.8 mm
09:10 PM 67.9°F19.9°C 59.2°F15.1°C 74% Calm Calm -- 29.83 in1010.2 mb 0.00 in0.0 mm 0.00 in0.0 mm 0.11 in2.8 mm
09:15 PM 67.7°F19.8°C 59.1°F15.1°C 74% Calm Calm -- 29.83 in1010.2 mb 0.00 in0.0 mm 0.00 in0.0 mm 0.11 in2.8 mm
09:20 PM 67.6°F19.8°C 59.3°F15.2°C 75% Calm Calm -- 29.83 in1010.2 mb 0.00 in0.0 mm 0.00 in0.0 mm 0.11 in2.8 mm
09:25 PM 67.4°F19.7°C 59.1°F15.1°C 75% Calm Calm 1.0 mph1.6 kmh 29.83 in1010.2 mb 0.00 in0.0 mm 0.00 in0.0 mm 0.11 in2.8 mm
09:30 PM 67.4°F19.7°C 59.1°F15.1°C 75% Calm Calm -- 29.84 in1010.5 mb 0.00 in0.0 mm 0.00 in0.0 mm 0.11 in2.8 mm
09:35 PM 67.2°F19.6°C 58.9°F14.9°C 75% Calm Calm -- 29.84 in1010.5 mb 0.00 in0.0 mm 0.00 in0.0 mm 0.11 in2.8 mm
09:40 PM 67.0°F19.4°C 59.1°F15.1°C 76% Calm Calm -- 29.84 in1010.5 mb 0.00 in0.0 mm 0.00 in0.0 mm 0.11 in2.8 mm
09:45 PM 67.0°F19.4°C 59.9°F15.5°C 78% Calm Calm 1.0 mph1.6 kmh 29.84 in1010.5 mb 0.00 in0.0 mm 0.00 in0.0 mm 0.11 in2.8 mm
09:50 PM 66.8°F19.3°C 59.7°F15.4°C 78% Calm Calm -- 29.84 in1010.5 mb 0.00 in0.0 mm 0.00 in0.0 mm 0.11 in2.8 mm
09:55 PM 66.7°F19.3°C 59.6°F15.3°C 78% Calm Calm -- 29.84 in1010.5 mb 0.00 in0.0 mm 0.00 in0.0 mm 0.11 in2.8 mm
10:00 PM 66.3°F19.1°C 59.2°F15.1°C 78% Calm Calm -- 29.84 in1010.5 mb 0.00 in0.0 mm 0.00 in0.0 mm 0.11 in2.8 mm
10:05 PM 65.7°F18.7°C 59.0°F15.0°C 79% Calm Calm 1.0 mph1.6 kmh 29.84 in1010.5 mb 0.00 in0.0 mm 0.00 in0.0 mm 0.11 in2.8 mm
10:10 PM 65.5°F18.6°C 59.1°F15.1°C 80% Calm Calm -- 29.83 in1010.2 mb 0.00 in0.0 mm 0.00 in0.0 mm 0.11 in2.8 mm
10:15 PM 65.1°F18.4°C 58.7°F14.8°C 80% Calm Calm 1.0 mph1.6 kmh 29.84 in1010.5 mb 0.00 in0.0 mm 0.00 in0.0 mm 0.11 in2.8 mm
10:20 PM 64.8°F18.2°C 58.8°F14.9°C 81% Calm Calm -- 29.84 in1010.5 mb 0.00 in0.0 mm 0.00 in0.0 mm 0.11 in2.8 mm
10:25 PM 64.6°F18.1°C 58.9°F14.9°C 82% Calm Calm -- 29.84 in1010.5 mb 0.00 in0.0 mm 0.00 in0.0 mm 0.11 in2.8 mm
10:30 PM 64.6°F18.1°C 58.9°F14.9°C 82% Calm Calm -- 29.84 in1010.5 mb 0.00 in0.0 mm 0.00 in0.0 mm 0.11 in2.8 mm
10:35 PM 64.4°F18.0°C 58.7°F14.8°C 82% Calm Calm -- 29.84 in1010.5 mb 0.00 in0.0 mm 0.00 in0.0 mm 0.11 in2.8 mm
10:40 PM 64.2°F17.9°C 58.5°F14.7°C 82% Calm Calm -- 29.84 in1010.5 mb 0.00 in0.0 mm 0.00 in0.0 mm 0.11 in2.8 mm
10:45 PM 64.1°F17.8°C 58.4°F14.7°C 82% Calm Calm -- 29.84 in1010.5 mb 0.00 in0.0 mm 0.00 in0.0 mm 0.11 in2.8 mm
10:50 PM 63.8°F17.7°C 58.1°F14.5°C 82% Calm Calm -- 29.84 in1010.5 mb 0.00 in0.0 mm 0.00 in0.0 mm 0.11 in2.8 mm
10:55 PM 63.5°F17.5°C 57.9°F14.4°C 82% Calm Calm -- 29.84 in1010.5 mb 0.00 in0.0 mm 0.00 in0.0 mm 0.11 in2.8 mm
11:00 PM 63.4°F17.4°C 58.1°F14.5°C 83% Calm Calm -- 29.84 in1010.5 mb 0.00 in0.0 mm 0.00 in0.0 mm 0.11 in2.8 mm
11:05 PM 63.4°F17.4°C 58.1°F14.5°C 83% Calm Calm -- 29.84 in1010.5 mb 0.00 in0.0 mm 0.00 in0.0 mm 0.10 in2.5 mm
11:10 PM 63.3°F17.4°C 58.0°F14.4°C 83% Calm Calm -- 29.84 in1010.5 mb 0.00 in0.0 mm 0.00 in0.0 mm 0.10 in2.5 mm
11:15 PM 63.3°F17.4°C 58.0°F14.4°C 83% Calm Calm -- 29.84 in1010.5 mb 0.00 in0.0 mm 0.00 in0.0 mm 0.10 in2.5 mm
11:20 PM 63.3°F17.4°C 58.0°F14.4°C 83% Calm Calm -- 29.85 in1010.8 mb 0.00 in0.0 mm 0.00 in0.0 mm 0.10 in2.5 mm
11:25 PM 63.4°F17.4°C 58.1°F14.5°C 83% Calm Calm -- 29.85 in1010.8 mb 0.00 in0.0 mm 0.00 in0.0 mm 0.10 in2.5 mm
11:30 PM 63.3°F17.4°C 58.0°F14.4°C 83% Calm Calm -- 29.85 in1010.8 mb 0.00 in0.0 mm 0.00 in0.0 mm 0.10 in2.5 mm
11:35 PM 63.2°F17.3°C 57.9°F14.4°C 83% Calm Calm -- 29.85 in1010.8 mb 0.00 in0.0 mm 0.00 in0.0 mm 0.10 in2.5 mm
11:40 PM 63.2°F17.3°C 58.2°F14.6°C 84% Calm Calm -- 29.85 in1010.8 mb 0.00 in0.0 mm 0.00 in0.0 mm 0.10 in2.5 mm
11:45 PM 63.2°F17.3°C 58.6°F14.8°C 85% Calm Calm -- 29.85 in1010.8 mb 0.00 in0.0 mm 0.00 in0.0 mm 0.10 in2.5 mm
11:50 PM 63.2°F17.3°C 58.2°F14.6°C 84% Calm Calm -- 29.85 in1010.8 mb 0.00 in0.0 mm 0.00 in0.0 mm 0.10 in2.5 mm
11:55 PM 63.0°F17.2°C 58.0°F14.4°C 84% Calm Calm -- 29.85 in1010.8 mb 0.00 in0.0 mm 0.00 in0.0 mm 0.10 in2.5 mm